sensor_id;sensor_type;location;lat;lon;timestamp;temperature;humidity
31391;DHT22;18022;45.492;11.548;2022-08-19T06:13:34;21.20;99.90
31391;DHT22;18022;45.492;11.548;2022-08-19T06:15:59;21.20;99.90
31391;DHT22;18022;45.492;11.548;2022-08-19T06:18:25;21.20;99.90
31391;DHT22;18022;45.492;11.548;2022-08-19T06:20:51;21.30;99.90
31391;DHT22;18022;45.492;11.548;2022-08-19T06:23:18;21.30;99.90
31391;DHT22;18022;45.492;11.548;2022-08-19T06:25:45;21.40;99.90
31391;DHT22;18022;45.492;11.548;2022-08-19T06:28:11;21.40;99.90
31391;DHT22;18022;45.492;11.548;2022-08-19T06:30:37;21.50;99.90
31391;DHT22;18022;45.492;11.548;2022-08-19T06:33:02;21.50;99.90
31391;DHT22;18022;45.492;11.548;2022-08-19T06:35:28;21.50;99.90
31391;DHT22;18022;45.492;11.548;2022-08-19T06:37:55;21.50;99.90
31391;DHT22;18022;45.492;11.548;2022-08-19T06:40:21;21.50;99.90
31391;DHT22;18022;45.492;11.548;2022-08-19T06:42:46;21.50;99.90
31391;DHT22;18022;45.492;11.548;2022-08-19T06:45:12;21.50;99.90
31391;DHT22;18022;45.492;11.548;2022-08-19T06:47:38;21.40;99.90
31391;DHT22;18022;45.492;11.548;2022-08-19T06:50:04;21.40;99.90
31391;DHT22;18022;45.492;11.548;2022-08-19T06:52:31;21.40;99.90
31391;DHT22;18022;45.492;11.548;2022-08-19T06:54:58;21.30;99.90
31391;DHT22;18022;45.492;11.548;2022-08-19T06:57:25;21.20;99.90
31391;DHT22;18022;45.492;11.548;2022-08-19T06:59:51;21.20;99.90
31391;DHT22;18022;45.492;11.548;2022-08-19T07:02:18;21.20;99.90
31391;DHT22;18022;45.492;11.548;2022-08-19T07:04:44;21.20;99.90
31391;DHT22;18022;45.492;11.548;2022-08-19T07:07:13;21.10;99.90
31391;DHT22;18022;45.492;11.548;2022-08-19T07:09:42;21.10;99.90
31391;DHT22;18022;45.492;11.548;2022-08-19T07:12:10;21.00;99.90
31391;DHT22;18022;45.492;11.548;2022-08-19T07:14:38;21.00;99.90
31391;DHT22;18022;45.492;11.548;2022-08-19T07:17:06;21.00;99.90
31391;DHT22;18022;45.492;11.548;2022-08-19T07:19:33;21.00;99.90
31391;DHT22;18022;45.492;11.548;2022-08-19T07:22:01;20.90;99.90
31391;DHT22;18022;45.492;11.548;2022-08-19T07:24:27;21.00;99.90
31391;DHT22;18022;45.492;11.548;2022-08-19T07:26:56;21.00;99.90
31391;DHT22;18022;45.492;11.548;2022-08-19T07:29:33;21.00;99.90
31391;DHT22;18022;45.492;11.548;2022-08-19T07:32:00;21.00;99.90
31391;DHT22;18022;45.492;11.548;2022-08-19T07:34:28;20.90;99.90
31391;DHT22;18022;45.492;11.548;2022-08-19T07:36:55;20.90;99.90
31391;DHT22;18022;45.492;11.548;2022-08-19T07:39:24;20.90;99.90
31391;DHT22;18022;45.492;11.548;2022-08-19T07:41:51;20.90;99.90
31391;DHT22;18022;45.492;11.548;2022-08-19T07:44:19;20.80;99.90
31391;DHT22;18022;45.492;11.548;2022-08-19T07:46:49;20.80;99.90
31391;DHT22;18022;45.492;11.548;2022-08-19T07:49:16;20.80;99.90
31391;DHT22;18022;45.492;11.548;2022-08-19T07:52:00;20.90;99.90
31391;DHT22;18022;45.492;11.548;2022-08-19T07:54:28;20.80;99.90
31391;DHT22;18022;45.492;11.548;2022-08-19T07:56:55;20.60;99.90
31391;DHT22;18022;45.492;11.548;2022-08-19T07:59:22;20.60;99.90
31391;DHT22;18022;45.492;11.548;2022-08-19T08:01:49;20.60;99.90
31391;DHT22;18022;45.492;11.548;2022-08-19T08:04:16;20.60;99.90
31391;DHT22;18022;45.492;11.548;2022-08-19T08:07:01;20.60;99.90
31391;DHT22;18022;45.492;11.548;2022-08-19T08:09:46;20.60;99.90
31391;DHT22;18022;45.492;11.548;2022-08-19T08:12:21;20.60;99.90
31391;DHT22;18022;45.492;11.548;2022-08-19T08:14:51;20.60;99.90
31391;DHT22;18022;45.492;11.548;2022-08-19T08:17:19;20.60;99.90
31391;DHT22;18022;45.492;11.548;2022-08-19T08:19:45;20.60;99.90
31391;DHT22;18022;45.492;11.548;2022-08-19T08:22:15;20.70;99.90
31391;DHT22;18022;45.492;11.548;2022-08-19T08:25:16;20.50;99.90
31391;DHT22;18022;45.492;11.548;2022-08-19T08:27:43;20.50;99.90
31391;DHT22;18022;45.492;11.548;2022-08-19T08:30:21;20.50;99.90
31391;DHT22;18022;45.492;11.548;2022-08-19T08:32:47;20.50;99.90
31391;DHT22;18022;45.492;11.548;2022-08-19T08:35:15;20.50;99.90
31391;DHT22;18022;45.492;11.548;2022-08-19T08:37:42;20.50;99.90
31391;DHT22;18022;45.492;11.548;2022-08-19T08:40:26;20.50;99.90
31391;DHT22;18022;45.492;11.548;2022-08-19T08:43:07;20.30;99.90
31391;DHT22;18022;45.492;11.548;2022-08-19T08:45:35;20.10;99.90
31391;DHT22;18022;45.492;11.548;2022-08-19T08:48:07;20.00;99.90
31391;DHT22;18022;45.492;11.548;2022-08-19T08:50:39;20.00;99.90
31391;DHT22;18022;45.492;11.548;2022-08-19T08:53:09;20.00;99.90
31391;DHT22;18022;45.492;11.548;2022-08-19T08:55:36;20.00;99.90
31391;DHT22;18022;45.492;11.548;2022-08-19T08:58:05;19.90;99.90
31391;DHT22;18022;45.492;11.548;2022-08-19T09:00:39;19.90;99.90
31391;DHT22;18022;45.492;11.548;2022-08-19T09:03:22;19.90;99.90
31391;DHT22;18022;45.492;11.548;2022-08-19T09:06:01;20.00;99.90
31391;DHT22;18022;45.492;11.548;2022-08-19T09:09:03;20.00;99.90
31391;DHT22;18022;45.492;11.548;2022-08-19T09:17:00;20.00;99.90
31391;DHT22;18022;45.492;11.548;2022-08-19T09:19:29;20.00;99.90
31391;DHT22;18022;45.492;11.548;2022-08-19T09:21:55;20.10;99.90
31391;DHT22;18022;45.492;11.548;2022-08-19T09:24:21;20.20;99.90
31391;DHT22;18022;45.492;11.548;2022-08-19T09:26:47;20.20;99.90
31391;DHT22;18022;45.492;11.548;2022-08-19T09:29:13;20.20;99.90
31391;DHT22;18022;45.492;11.548;2022-08-19T09:31:38;20.20;99.90
31391;DHT22;18022;45.492;11.548;2022-08-19T09:34:04;20.30;99.90
31391;DHT22;18022;45.492;11.548;2022-08-19T09:36:30;20.30;99.90
31391;DHT22;18022;45.492;11.548;2022-08-19T09:39:05;20.30;99.90
31391;DHT22;18022;45.492;11.548;2022-08-19T09:41:31;20.40;99.90
31391;DHT22;18022;45.492;11.548;2022-08-19T09:43:58;20.50;99.90
31391;DHT22;18022;45.492;11.548;2022-08-19T09:46:27;20.60;99.90
31391;DHT22;18022;45.492;11.548;2022-08-19T09:48:54;20.80;99.90
31391;DHT22;18022;45.492;11.548;2022-08-19T09:51:23;21.00;99.90
31391;DHT22;18022;45.492;11.548;2022-08-19T09:53:50;21.10;99.90
31391;DHT22;18022;45.492;11.548;2022-08-19T09:56:18;21.10;99.90
31391;DHT22;18022;45.492;11.548;2022-08-19T09:58:45;21.10;99.90
31391;DHT22;18022;45.492;11.548;2022-08-19T10:01:20;21.10;99.90
31391;DHT22;18022;45.492;11.548;2022-08-19T10:03:52;21.10;99.90
31391;DHT22;18022;45.492;11.548;2022-08-19T10:06:23;21.10;99.90
31391;DHT22;18022;45.492;11.548;2022-08-19T10:08:50;21.20;99.90
31391;DHT22;18022;45.492;11.548;2022-08-19T10:11:18;21.30;99.90
31391;DHT22;18022;45.492;11.548;2022-08-19T10:13:44;21.40;99.90
31391;DHT22;18022;45.492;11.548;2022-08-19T10:16:17;21.50;99.90
31391;DHT22;18022;45.492;11.548;2022-08-19T10:18:45;21.60;99.90
31391;DHT22;18022;45.492;11.548;2022-08-19T10:21:18;21.80;99.90
31391;DHT22;18022;45.492;11.548;2022-08-19T10:23:47;21.90;99.90
31391;DHT22;18022;45.492;11.548;2022-08-19T10:26:17;21.90;99.90
31391;DHT22;18022;45.492;11.548;2022-08-19T10:28:43;22.00;99.90
31391;DHT22;18022;45.492;11.548;2022-08-19T10:31:16;22.10;99.90
31391;DHT22;18022;45.492;11.548;2022-08-19T10:33:43;22.10;99.90
31391;DHT22;18022;45.492;11.548;2022-08-19T10:36:30;22.20;99.90
31391;DHT22;18022;45.492;11.548;2022-08-19T10:38:59;22.30;99.90
31391;DHT22;18022;45.492;11.548;2022-08-19T10:41:29;22.20;99.90
31391;DHT22;18022;45.492;11.548;2022-08-19T10:44:01;22.30;99.90
31391;DHT22;18022;45.492;11.548;2022-08-19T10:46:28;22.40;99.90
31391;DHT22;18022;45.492;11.548;2022-08-19T10:48:58;22.40;99.90
31391;DHT22;18022;45.492;11.548;2022-08-19T10:51:25;22.40;99.90
31391;DHT22;18022;45.492;11.548;2022-08-19T10:54:09;22.50;99.90
31391;DHT22;18022;45.492;11.548;2022-08-19T10:56:35;22.60;99.90
31391;DHT22;18022;45.492;11.548;2022-08-19T11:01:47;22.70;99.90
31391;DHT22;18022;45.492;11.548;2022-08-19T11:04:14;22.60;99.90
31391;DHT22;18022;45.492;11.548;2022-08-19T11:06:41;22.70;99.90
31391;DHT22;18022;45.492;11.548;2022-08-19T11:09:09;22.90;99.90
31391;DHT22;18022;45.492;11.548;2022-08-19T11:11:35;23.00;99.90
31391;DHT22;18022;45.492;11.548;2022-08-19T11:14:16;23.00;99.90
31391;DHT22;18022;45.492;11.548;2022-08-19T11:16:44;22.90;99.90
31391;DHT22;18022;45.492;11.548;2022-08-19T11:19:11;23.00;99.90
31391;DHT22;18022;45.492;11.548;2022-08-19T11:21:42;23.00;99.90
31391;DHT22;18022;45.492;11.548;2022-08-19T11:24:15;23.10;99.90
31391;DHT22;18022;45.492;11.548;2022-08-19T11:26:42;23.10;99.90
31391;DHT22;18022;45.492;11.548;2022-08-19T11:29:09;23.20;99.90
31391;DHT22;18022;45.492;11.548;2022-08-19T11:31:41;23.30;99.90
31391;DHT22;18022;45.492;11.548;2022-08-19T11:34:10;23.30;99.90
31391;DHT22;18022;45.492;11.548;2022-08-19T11:36:38;23.40;99.90
31391;DHT22;18022;45.492;11.548;2022-08-19T11:39:05;23.40;99.90
31391;DHT22;18022;45.492;11.548;2022-08-19T11:41:31;23.30;99.90
31391;DHT22;18022;45.492;11.548;2022-08-19T11:43:56;23.50;99.90
31391;DHT22;18022;45.492;11.548;2022-08-19T11:46:24;23.60;99.90
31391;DHT22;18022;45.492;11.548;2022-08-19T11:48:51;23.80;99.90
31391;DHT22;18022;45.492;11.548;2022-08-19T11:51:22;23.80;99.90
31391;DHT22;18022;45.492;11.548;2022-08-19T11:53:50;23.90;99.90
31391;DHT22;18022;45.492;11.548;2022-08-19T11:56:17;23.90;99.90
31391;DHT22;18022;45.492;11.548;2022-08-19T11:58:44;24.10;99.90
31391;DHT22;18022;45.492;11.548;2022-08-19T12:01:11;24.30;99.90
31391;DHT22;18022;45.492;11.548;2022-08-19T12:03:37;24.40;99.90
31391;DHT22;18022;45.492;11.548;2022-08-19T12:06:10;24.40;99.90
31391;DHT22;18022;45.492;11.548;2022-08-19T12:08:37;24.60;99.90
31391;DHT22;18022;45.492;11.548;2022-08-19T12:11:04;24.80;99.90
31391;DHT22;18022;45.492;11.548;2022-08-19T12:13:30;24.80;99.90
31391;DHT22;18022;45.492;11.548;2022-08-19T12:15:56;24.80;99.90
31391;DHT22;18022;45.492;11.548;2022-08-19T12:18:23;25.00;99.90
31391;DHT22;18022;45.492;11.548;2022-08-19T12:20:51;24.90;99.90
31391;DHT22;18022;45.492;11.548;2022-08-19T12:23:18;24.70;99.90
31391;DHT22;18022;45.492;11.548;2022-08-19T12:25:47;25.00;99.90
31391;DHT22;18022;45.492;11.548;2022-08-19T12:28:16;25.10;99.90
31391;DHT22;18022;45.492;11.548;2022-08-19T12:30:41;25.10;99.90
31391;DHT22;18022;45.492;11.548;2022-08-19T12:33:07;24.70;99.90
31391;DHT22;18022;45.492;11.548;2022-08-19T12:35:33;24.60;99.90
31391;DHT22;18022;45.492;11.548;2022-08-19T12:37:59;24.40;99.90
31391;DHT22;18022;45.492;11.548;2022-08-19T12:40:26;24.20;99.90
31391;DHT22;18022;45.492;11.548;2022-08-19T12:42:53;24.20;99.90
31391;DHT22;18022;45.492;11.548;2022-08-19T12:45:19;24.20;99.90
31391;DHT22;18022;45.492;11.548;2022-08-19T12:47:45;24.00;99.90
31391;DHT22;18022;45.492;11.548;2022-08-19T12:50:11;23.90;99.90
31391;DHT22;18022;45.492;11.548;2022-08-19T12:52:37;23.70;99.90
31391;DHT22;18022;45.492;11.548;2022-08-19T12:55:05;23.60;99.90
31391;DHT22;18022;45.492;11.548;2022-08-19T12:57:30;23.60;99.90
31391;DHT22;18022;45.492;11.548;2022-08-19T13:00:03;23.70;99.90
31391;DHT22;18022;45.492;11.548;2022-08-19T13:02:31;23.80;99.90
31391;DHT22;18022;45.492;11.548;2022-08-19T13:04:57;23.80;99.90
31391;DHT22;18022;45.492;11.548;2022-08-19T13:07:24;23.80;99.90
31391;DHT22;18022;45.492;11.548;2022-08-19T13:09:51;23.80;99.90
31391;DHT22;18022;45.492;11.548;2022-08-19T13:12:17;23.80;99.90
31391;DHT22;18022;45.492;11.548;2022-08-19T13:14:43;23.80;99.90
31391;DHT22;18022;45.492;11.548;2022-08-19T13:17:11;24.10;99.90
31391;DHT22;18022;45.492;11.548;2022-08-19T13:19:39;24.10;99.90
31391;DHT22;18022;45.492;11.548;2022-08-19T13:22:05;24.20;99.90
31391;DHT22;18022;45.492;11.548;2022-08-19T13:24:31;24.30;99.90
31391;DHT22;18022;45.492;11.548;2022-08-19T13:26:59;24.40;99.90
31391;DHT22;18022;45.492;11.548;2022-08-19T13:29:27;24.60;99.90
31391;DHT22;18022;45.492;11.548;2022-08-19T13:32:11;24.60;99.90
31391;DHT22;18022;45.492;11.548;2022-08-19T13:34:55;24.80;99.90
31391;DHT22;18022;45.492;11.548;2022-08-19T13:37:21;24.80;99.90
31391;DHT22;18022;45.492;11.548;2022-08-19T13:40:14;24.80;99.90
31391;DHT22;18022;45.492;11.548;2022-08-19T13:42:44;24.90;99.90
31391;DHT22;18022;45.492;11.548;2022-08-19T13:45:12;24.90;99.90
31391;DHT22;18022;45.492;11.548;2022-08-19T13:47:38;24.90;99.90
31391;DHT22;18022;45.492;11.548;2022-08-19T13:50:21;24.90;99.90
31391;DHT22;18022;45.492;11.548;2022-08-19T13:52:48;24.90;99.90
31391;DHT22;18022;45.492;11.548;2022-08-19T13:55:15;24.90;99.90
31391;DHT22;18022;45.492;11.548;2022-08-19T13:57:41;24.80;99.90
31391;DHT22;18022;45.492;11.548;2022-08-19T14:00:10;24.70;99.90
31391;DHT22;18022;45.492;11.548;2022-08-19T14:02:37;24.70;99.90
31391;DHT22;18022;45.492;11.548;2022-08-19T14:05:06;25.00;99.90
31391;DHT22;18022;45.492;11.548;2022-08-19T14:07:32;25.10;99.90
31391;DHT22;18022;45.492;11.548;2022-08-19T14:09:58;25.00;99.90
31391;DHT22;18022;45.492;11.548;2022-08-19T14:12:24;25.10;99.90
31391;DHT22;18022;45.492;11.548;2022-08-19T14:14:49;25.20;99.90
31391;DHT22;18022;45.492;11.548;2022-08-19T14:17:15;25.30;99.90
31391;DHT22;18022;45.492;11.548;2022-08-19T14:19:41;25.30;99.90
31391;DHT22;18022;45.492;11.548;2022-08-19T14:22:08;25.30;99.90
31391;DHT22;18022;45.492;11.548;2022-08-19T14:24:33;25.30;99.90
31391;DHT22;18022;45.492;11.548;2022-08-19T14:26:59;25.30;99.90
31391;DHT22;18022;45.492;11.548;2022-08-19T14:29:26;25.40;99.90
31391;DHT22;18022;45.492;11.548;2022-08-19T14:31:55;25.30;99.90
31391;DHT22;18022;45.492;11.548;2022-08-19T14:34:24;25.40;99.90
31391;DHT22;18022;45.492;11.548;2022-08-19T14:36:50;25.40;99.90
31391;DHT22;18022;45.492;11.548;2022-08-19T14:39:16;25.50;99.90
31391;DHT22;18022;45.492;11.548;2022-08-19T14:41:42;25.50;99.90
31391;DHT22;18022;45.492;11.548;2022-08-19T14:44:08;25.40;99.90
31391;DHT22;18022;45.492;11.548;2022-08-19T14:46:38;25.60;99.90
31391;DHT22;18022;45.492;11.548;2022-08-19T14:49:04;25.60;99.90
31391;DHT22;18022;45.492;11.548;2022-08-19T14:51:30;25.60;99.90
31391;DHT22;18022;45.492;11.548;2022-08-19T14:53:56;25.60;99.90
31391;DHT22;18022;45.492;11.548;2022-08-19T14:56:26;25.70;99.90
31391;DHT22;18022;45.492;11.548;2022-08-19T14:58:52;25.70;99.90
31391;DHT22;18022;45.492;11.548;2022-08-19T15:01:19;25.70;99.90
31391;DHT22;18022;45.492;11.548;2022-08-19T15:03:46;25.40;99.90
31391;DHT22;18022;45.492;11.548;2022-08-19T15:06:13;25.30;99.90
31391;DHT22;18022;45.492;11.548;2022-08-19T15:08:40;25.50;99.90
31391;DHT22;18022;45.492;11.548;2022-08-19T15:11:10;25.50;99.90
31391;DHT22;18022;45.492;11.548;2022-08-19T15:13:36;25.60;99.90
31391;DHT22;18022;45.492;11.548;2022-08-19T15:16:03;25.40;99.90
31391;DHT22;18022;45.492;11.548;2022-08-19T15:18:28;25.40;99.90
31391;DHT22;18022;45.492;11.548;2022-08-19T15:20:54;25.60;99.90
31391;DHT22;18022;45.492;11.548;2022-08-19T15:23:21;25.80;99.90
31391;DHT22;18022;45.492;11.548;2022-08-19T15:25:47;25.60;99.90
31391;DHT22;18022;45.492;11.548;2022-08-19T15:28:13;25.50;99.90
31391;DHT22;18022;45.492;11.548;2022-08-19T15:30:41;25.70;99.90
31391;DHT22;18022;45.492;11.548;2022-08-19T15:33:10;25.70;99.90
31391;DHT22;18022;45.492;11.548;2022-08-19T15:35:40;25.70;99.90
31391;DHT22;18022;45.492;11.548;2022-08-19T15:38:06;25.60;99.90
31391;DHT22;18022;45.492;11.548;2022-08-19T15:40:33;25.50;99.90
31391;DHT22;18022;45.492;11.548;2022-08-19T15:42:58;25.60;99.90
31391;DHT22;18022;45.492;11.548;2022-08-19T15:45:25;25.60;99.90
31391;DHT22;18022;45.492;11.548;2022-08-19T15:48:01;25.60;99.90
31391;DHT22;18022;45.492;11.548;2022-08-19T15:50:29;25.60;99.90
31391;DHT22;18022;45.492;11.548;2022-08-19T15:53:03;25.60;99.90
31391;DHT22;18022;45.492;11.548;2022-08-19T15:55:32;25.50;99.90
31391;DHT22;18022;45.492;11.548;2022-08-19T15:58:04;25.30;99.90
31391;DHT22;18022;45.492;11.548;2022-08-19T16:00:48;25.20;99.90
31391;DHT22;18022;45.492;11.548;2022-08-19T16:03:32;25.20;99.90
31391;DHT22;18022;45.492;11.548;2022-08-19T16:06:16;25.30;99.90
31391;DHT22;18022;45.492;11.548;2022-08-19T16:08:57;25.40;99.90
31391;DHT22;18022;45.492;11.548;2022-08-19T16:11:26;25.50;99.90
31391;DHT22;18022;45.492;11.548;2022-08-19T16:13:53;25.40;99.90
31391;DHT22;18022;45.492;11.548;2022-08-19T16:16:25;25.40;99.90
31391;DHT22;18022;45.492;11.548;2022-08-19T16:18:54;25.40;99.90
31391;DHT22;18022;45.492;11.548;2022-08-19T16:21:20;25.50;99.90
31391;DHT22;18022;45.492;11.548;2022-08-19T16:23:47;25.40;99.90
31391;DHT22;18022;45.492;11.548;2022-08-19T16:26:14;25.40;99.90
31391;DHT22;18022;45.492;11.548;2022-08-19T16:28:41;25.20;99.90
31391;DHT22;18022;45.492;11.548;2022-08-19T16:31:07;25.00;99.90
31391;DHT22;18022;45.492;11.548;2022-08-19T16:33:33;24.80;99.90
31391;DHT22;18022;45.492;11.548;2022-08-19T16:35:59;24.80;99.90
31391;DHT22;18022;45.492;11.548;2022-08-19T16:38:25;24.70;99.90
31391;DHT22;18022;45.492;11.548;2022-08-19T16:40:52;24.80;99.90
31391;DHT22;18022;45.492;11.548;2022-08-19T16:43:20;24.80;99.90
31391;DHT22;18022;45.492;11.548;2022-08-19T16:45:50;24.90;99.90
31391;DHT22;18022;45.492;11.548;2022-08-19T16:48:26;24.80;99.90
31391;DHT22;18022;45.492;11.548;2022-08-19T16:50:55;24.70;99.90
31391;DHT22;18022;45.492;11.548;2022-08-19T16:53:23;24.60;99.90
31391;DHT22;18022;45.492;11.548;2022-08-19T16:55:57;24.50;99.90
31391;DHT22;18022;45.492;11.548;2022-08-19T16:58:25;24.50;99.90
31391;DHT22;18022;45.492;11.548;2022-08-19T17:00:52;24.30;99.90
31391;DHT22;18022;45.492;11.548;2022-08-19T17:03:19;24.30;99.90
31391;DHT22;18022;45.492;11.548;2022-08-19T17:05:51;24.30;99.90
31391;DHT22;18022;45.492;11.548;2022-08-19T17:08:19;24.30;99.90
31391;DHT22;18022;45.492;11.548;2022-08-19T17:10:45;24.20;99.90
31391;DHT22;18022;45.492;11.548;2022-08-19T17:13:12;24.10;99.90
31391;DHT22;18022;45.492;11.548;2022-08-19T17:15:41;24.10;99.90
31391;DHT22;18022;45.492;11.548;2022-08-19T17:18:09;24.20;99.90
31391;DHT22;18022;45.492;11.548;2022-08-19T17:20:36;24.10;99.90
31391;DHT22;18022;45.492;11.548;2022-08-19T17:23:03;24.10;99.90
31391;DHT22;18022;45.492;11.548;2022-08-19T17:25:30;24.00;99.90
31391;DHT22;18022;45.492;11.548;2022-08-19T17:27:57;23.90;99.90
31391;DHT22;18022;45.492;11.548;2022-08-19T17:30:23;23.80;99.90
31391;DHT22;18022;45.492;11.548;2022-08-19T17:32:49;23.90;99.90
31391;DHT22;18022;45.492;11.548;2022-08-19T17:35:16;23.90;99.90
31391;DHT22;18022;45.492;11.548;2022-08-19T17:37:44;23.90;99.90
31391;DHT22;18022;45.492;11.548;2022-08-19T17:40:10;23.80;99.90
31391;DHT22;18022;45.492;11.548;2022-08-19T17:42:36;23.80;99.90
31391;DHT22;18022;45.492;11.548;2022-08-19T17:45:03;23.80;99.90
31391;DHT22;18022;45.492;11.548;2022-08-19T17:47:29;23.60;99.90
31391;DHT22;18022;45.492;11.548;2022-08-19T17:49:56;23.50;99.90
31391;DHT22;18022;45.492;11.548;2022-08-19T17:52:22;23.50;99.90
31391;DHT22;18022;45.492;11.548;2022-08-19T17:54:49;23.50;99.90
31391;DHT22;18022;45.492;11.548;2022-08-19T17:57:14;23.50;99.90
31391;DHT22;18022;45.492;11.548;2022-08-19T17:59:40;23.50;99.90
31391;DHT22;18022;45.492;11.548;2022-08-19T18:02:08;23.40;99.90
31391;DHT22;18022;45.492;11.548;2022-08-19T18:04:34;23.30;99.90
31391;DHT22;18022;45.492;11.548;2022-08-19T18:07:00;23.10;99.90
31391;DHT22;18022;45.492;11.548;2022-08-19T18:09:30;22.90;99.90
31391;DHT22;18022;45.492;11.548;2022-08-19T18:11:59;22.80;99.90
31391;DHT22;18022;45.492;11.548;2022-08-19T18:14:27;22.70;99.90
31391;DHT22;18022;45.492;11.548;2022-08-19T18:16:56;22.70;99.90
31391;DHT22;18022;45.492;11.548;2022-08-19T18:19:23;22.60;99.90
31391;DHT22;18022;45.492;11.548;2022-08-19T18:21:49;22.60;99.90
31391;DHT22;18022;45.492;11.548;2022-08-19T18:24:15;22.50;99.90
31391;DHT22;18022;45.492;11.548;2022-08-19T18:26:40;22.60;99.90
31391;DHT22;18022;45.492;11.548;2022-08-19T18:29:07;22.60;99.90
31391;DHT22;18022;45.492;11.548;2022-08-19T18:31:36;22.60;99.90
31391;DHT22;18022;45.492;11.548;2022-08-19T18:34:04;22.60;99.90
31391;DHT22;18022;45.492;11.548;2022-08-19T18:36:30;22.60;99.90
31391;DHT22;18022;45.492;11.548;2022-08-19T18:38:57;22.50;99.90
31391;DHT22;18022;45.492;11.548;2022-08-19T18:41:41;22.40;99.90
31391;DHT22;18022;45.492;11.548;2022-08-19T18:44:26;22.30;99.90
31391;DHT22;18022;45.492;11.548;2022-08-19T18:47:10;22.30;99.90
31391;DHT22;18022;45.492;11.548;2022-08-19T18:49:54;22.30;99.90
31391;DHT22;18022;45.492;11.548;2022-08-19T18:52:20;22.30;99.90
31391;DHT22;18022;45.492;11.548;2022-08-19T18:54:50;22.20;99.90
31391;DHT22;18022;45.492;11.548;2022-08-19T18:57:16;22.30;99.90
31391;DHT22;18022;45.492;11.548;2022-08-19T18:59:43;22.40;99.90
31391;DHT22;18022;45.492;11.548;2022-08-19T19:02:10;22.40;99.90
31391;DHT22;18022;45.492;11.548;2022-08-19T19:04:39;22.30;99.90
31391;DHT22;18022;45.492;11.548;2022-08-19T19:07:05;22.40;99.90
31391;DHT22;18022;45.492;11.548;2022-08-19T19:09:31;22.70;99.90
31391;DHT22;18022;45.492;11.548;2022-08-19T19:12:00;23.00;99.90
31391;DHT22;18022;45.492;11.548;2022-08-19T19:14:29;23.00;99.90
31391;DHT22;18022;45.492;11.548;2022-08-19T19:16:58;22.80;99.90
31391;DHT22;18022;45.492;11.548;2022-08-19T19:19:24;22.60;99.90
31391;DHT22;18022;45.492;11.548;2022-08-19T19:21:50;22.40;99.90
31391;DHT22;18022;45.492;11.548;2022-08-19T19:24:23;22.40;99.90
31391;DHT22;18022;45.492;11.548;2022-08-19T19:26:51;22.20;99.90
31391;DHT22;18022;45.492;11.548;2022-08-19T19:29:17;22.20;99.90
31391;DHT22;18022;45.492;11.548;2022-08-19T19:31:43;22.20;99.90
31391;DHT22;18022;45.492;11.548;2022-08-19T19:34:11;22.10;99.90
31391;DHT22;18022;45.492;11.548;2022-08-19T19:36:38;22.00;99.90
31391;DHT22;18022;45.492;11.548;2022-08-19T19:39:04;21.90;99.90
31391;DHT22;18022;45.492;11.548;2022-08-19T19:41:31;21.90;99.90
31391;DHT22;18022;45.492;11.548;2022-08-19T19:43:58;22.00;99.90
31391;DHT22;18022;45.492;11.548;2022-08-19T19:46:28;22.00;99.90
31391;DHT22;18022;45.492;11.548;2022-08-19T19:48:55;21.90;99.90
31391;DHT22;18022;45.492;11.548;2022-08-19T19:51:22;21.90;99.90
31391;DHT22;18022;45.492;11.548;2022-08-19T19:53:48;21.80;99.90
31391;DHT22;18022;45.492;11.548;2022-08-19T19:56:14;21.80;99.90
31391;DHT22;18022;45.492;11.548;2022-08-19T19:58:40;21.80;99.90
31391;DHT22;18022;45.492;11.548;2022-08-19T20:01:06;21.80;99.90
31391;DHT22;18022;45.492;11.548;2022-08-19T20:03:41;21.80;99.90
31391;DHT22;18022;45.492;11.548;2022-08-19T20:06:08;21.80;99.90
31391;DHT22;18022;45.492;11.548;2022-08-19T20:08:34;21.80;99.90
31391;DHT22;18022;45.492;11.548;2022-08-19T20:14:01;21.60;99.90
31391;DHT22;18022;45.492;11.548;2022-08-19T20:16:29;21.70;99.90
31391;DHT22;18022;45.492;11.548;2022-08-19T20:18:59;21.50;99.90
31391;DHT22;18022;45.492;11.548;2022-08-19T20:21:28;21.60;99.90
31391;DHT22;18022;45.492;11.548;2022-08-19T20:23:57;21.60;99.90
31391;DHT22;18022;45.492;11.548;2022-08-19T20:26:23;21.60;99.90
31391;DHT22;18022;45.492;11.548;2022-08-19T20:28:49;21.50;99.90
31391;DHT22;18022;45.492;11.548;2022-08-19T20:31:16;21.50;99.90
31391;DHT22;18022;45.492;11.548;2022-08-19T20:33:43;21.50;99.90
31391;DHT22;18022;45.492;11.548;2022-08-19T20:36:09;21.50;99.90
31391;DHT22;18022;45.492;11.548;2022-08-19T20:38:35;21.50;99.90
31391;DHT22;18022;45.492;11.548;2022-08-19T20:41:02;21.40;99.90
31391;DHT22;18022;45.492;11.548;2022-08-19T20:43:29;21.40;99.90
31391;DHT22;18022;45.492;11.548;2022-08-19T20:45:55;21.40;99.90
31391;DHT22;18022;45.492;11.548;2022-08-19T20:48:21;21.40;99.90
31391;DHT22;18022;45.492;11.548;2022-08-19T20:50:47;21.30;99.90
31391;DHT22;18022;45.492;11.548;2022-08-19T20:53:18;21.30;99.90
31391;DHT22;18022;45.492;11.548;2022-08-19T20:55:46;21.30;99.90
31391;DHT22;18022;45.492;11.548;2022-08-19T20:58:16;21.30;99.90
31391;DHT22;18022;45.492;11.548;2022-08-19T21:00:42;21.30;99.90
31391;DHT22;18022;45.492;11.548;2022-08-19T21:03:10;21.40;99.90
31391;DHT22;18022;45.492;11.548;2022-08-19T21:05:36;21.40;99.90
31391;DHT22;18022;45.492;11.548;2022-08-19T21:08:02;21.30;99.90
31391;DHT22;18022;45.492;11.548;2022-08-19T21:10:29;21.10;99.90
31391;DHT22;18022;45.492;11.548;2022-08-19T21:12:54;20.90;99.90
31391;DHT22;18022;45.492;11.548;2022-08-19T21:15:20;20.90;99.90
31391;DHT22;18022;45.492;11.548;2022-08-19T21:17:46;20.90;99.90
31391;DHT22;18022;45.492;11.548;2022-08-19T21:20:13;21.00;99.90
31391;DHT22;18022;45.492;11.548;2022-08-19T21:22:39;21.00;99.90
31391;DHT22;18022;45.492;11.548;2022-08-19T21:25:05;21.00;99.90
31391;DHT22;18022;45.492;11.548;2022-08-19T21:27:31;21.00;99.90
31391;DHT22;18022;45.492;11.548;2022-08-19T21:29:57;21.00;99.90
31391;DHT22;18022;45.492;11.548;2022-08-19T21:32:23;21.00;99.90
31391;DHT22;18022;45.492;11.548;2022-08-19T21:34:49;21.00;99.90
31391;DHT22;18022;45.492;11.548;2022-08-19T21:37:17;21.00;99.90
31391;DHT22;18022;45.492;11.548;2022-08-19T21:39:44;21.00;99.90
31391;DHT22;18022;45.492;11.548;2022-08-19T21:42:11;20.90;99.90
31391;DHT22;18022;45.492;11.548;2022-08-19T21:44:38;21.00;99.90
31391;DHT22;18022;45.492;11.548;2022-08-19T21:47:04;20.90;99.90